sensor_id;sensor_type;location;lat;lon;timestamp;temperature;humidity
5786;DHT22;2919;48.630;9.000;2023-07-13T00:00:38;18.90;95.40
5786;DHT22;2919;48.630;9.000;2023-07-13T00:03:04;18.80;95.60
5786;DHT22;2919;48.630;9.000;2023-07-13T00:05:30;18.70;96.10
5786;DHT22;2919;48.630;9.000;2023-07-13T00:07:56;18.60;96.70
5786;DHT22;2919;48.630;9.000;2023-07-13T00:10:22;18.40;97.10
5786;DHT22;2919;48.630;9.000;2023-07-13T00:12:48;18.30;97.60
5786;DHT22;2919;48.630;9.000;2023-07-13T00:15:17;18.20;97.80
5786;DHT22;2919;48.630;9.000;2023-07-13T00:17:54;18.10;98.20
5786;DHT22;2919;48.630;9.000;2023-07-13T00:20:21;18.00;98.30
5786;DHT22;2919;48.630;9.000;2023-07-13T00:22:48;18.00;98.30
5786;DHT22;2919;48.630;9.000;2023-07-13T00:25:15;17.90;98.40
5786;DHT22;2919;48.630;9.000;2023-07-13T00:27:43;17.80;98.40
5786;DHT22;2919;48.630;9.000;2023-07-13T00:30:09;17.70;98.40
5786;DHT22;2919;48.630;9.000;2023-07-13T00:32:35;17.60;98.40
5786;DHT22;2919;48.630;9.000;2023-07-13T00:35:02;17.70;98.30
5786;DHT22;2919;48.630;9.000;2023-07-13T00:37:28;17.60;98.20
5786;DHT22;2919;48.630;9.000;2023-07-13T00:39:54;17.70;98.10
5786;DHT22;2919;48.630;9.000;2023-07-13T00:42:19;17.60;97.90
5786;DHT22;2919;48.630;9.000;2023-07-13T00:45:06;17.60;97.60
5786;DHT22;2919;48.630;9.000;2023-07-13T00:47:32;17.60;97.40
5786;DHT22;2919;48.630;9.000;2023-07-13T00:49:58;17.60;97.70
5786;DHT22;2919;48.630;9.000;2023-07-13T00:52:24;17.60;97.30
5786;DHT22;2919;48.630;9.000;2023-07-13T00:54:50;17.70;97.80
5786;DHT22;2919;48.630;9.000;2023-07-13T00:57:18;17.70;97.70
5786;DHT22;2919;48.630;9.000;2023-07-13T00:59:50;17.70;98.20
5786;DHT22;2919;48.630;9.000;2023-07-13T01:02:17;17.60;97.00
5786;DHT22;2919;48.630;9.000;2023-07-13T01:04:43;17.70;97.00
5786;DHT22;2919;48.630;9.000;2023-07-13T01:07:09;17.70;97.40
5786;DHT22;2919;48.630;9.000;2023-07-13T01:09:36;17.80;97.20
5786;DHT22;2919;48.630;9.000;2023-07-13T01:12:02;17.80;97.10
5786;DHT22;2919;48.630;9.000;2023-07-13T01:14:28;17.80;97.00
5786;DHT22;2919;48.630;9.000;2023-07-13T01:16:54;17.80;97.40
5786;DHT22;2919;48.630;9.000;2023-07-13T01:19:39;17.80;97.20
5786;DHT22;2919;48.630;9.000;2023-07-13T01:22:16;17.70;97.60
5786;DHT22;2919;48.630;9.000;2023-07-13T01:24:44;17.70;97.30
5786;DHT22;2919;48.630;9.000;2023-07-13T01:27:12;17.60;97.60
5786;DHT22;2919;48.630;9.000;2023-07-13T01:29:39;17.60;97.70
5786;DHT22;2919;48.630;9.000;2023-07-13T01:32:08;17.50;97.80
5786;DHT22;2919;48.630;9.000;2023-07-13T01:34:34;17.50;98.30
5786;DHT22;2919;48.630;9.000;2023-07-13T01:37:00;17.40;98.70
5786;DHT22;2919;48.630;9.000;2023-07-13T01:39:25;17.30;98.80
5786;DHT22;2919;48.630;9.000;2023-07-13T01:41:51;17.20;98.80
5786;DHT22;2919;48.630;9.000;2023-07-13T01:44:17;17.20;98.90
5786;DHT22;2919;48.630;9.000;2023-07-13T01:46:42;17.10;99.00
5786;DHT22;2919;48.630;9.000;2023-07-13T01:49:08;17.10;99.20
5786;DHT22;2919;48.630;9.000;2023-07-13T01:51:33;17.10;99.00
5786;DHT22;2919;48.630;9.000;2023-07-13T01:53:59;17.10;98.90
5786;DHT22;2919;48.630;9.000;2023-07-13T01:56:24;17.10;99.10
5786;DHT22;2919;48.630;9.000;2023-07-13T01:58:51;17.00;98.80
5786;DHT22;2919;48.630;9.000;2023-07-13T02:01:17;17.00;98.70
5786;DHT22;2919;48.630;9.000;2023-07-13T02:03:42;17.20;98.80
5786;DHT22;2919;48.630;9.000;2023-07-13T02:06:08;17.00;97.30
5786;DHT22;2919;48.630;9.000;2023-07-13T02:08:34;17.10;97.60
5786;DHT22;2919;48.630;9.000;2023-07-13T02:11:00;17.10;98.20
5786;DHT22;2919;48.630;9.000;2023-07-13T02:13:27;17.00;98.30
5786;DHT22;2919;48.630;9.000;2023-07-13T02:15:53;17.00;98.20
5786;DHT22;2919;48.630;9.000;2023-07-13T02:18:18;17.10;98.30
5786;DHT22;2919;48.630;9.000;2023-07-13T02:20:44;17.00;98.30
5786;DHT22;2919;48.630;9.000;2023-07-13T02:23:10;16.80;98.20
5786;DHT22;2919;48.630;9.000;2023-07-13T02:25:36;16.80;98.90
5786;DHT22;2919;48.630;9.000;2023-07-13T02:28:01;16.60;99.60
5786;DHT22;2919;48.630;9.000;2023-07-13T02:30:27;16.40;99.90
5786;DHT22;2919;48.630;9.000;2023-07-13T02:32:55;16.40;99.90
5786;DHT22;2919;48.630;9.000;2023-07-13T02:35:21;16.40;99.90
5786;DHT22;2919;48.630;9.000;2023-07-13T02:37:47;16.30;99.90
5786;DHT22;2919;48.630;9.000;2023-07-13T02:40:12;16.10;99.90
5786;DHT22;2919;48.630;9.000;2023-07-13T02:42:38;16.10;99.90
5786;DHT22;2919;48.630;9.000;2023-07-13T02:45:04;16.00;99.90
5786;DHT22;2919;48.630;9.000;2023-07-13T02:47:32;15.90;99.90
5786;DHT22;2919;48.630;9.000;2023-07-13T02:49:57;15.90;99.90
5786;DHT22;2919;48.630;9.000;2023-07-13T02:52:23;15.90;99.90
5786;DHT22;2919;48.630;9.000;2023-07-13T02:54:48;15.90;99.90
5786;DHT22;2919;48.630;9.000;2023-07-13T02:57:14;15.90;99.90
5786;DHT22;2919;48.630;9.000;2023-07-13T02:59:40;15.80;99.90
5786;DHT22;2919;48.630;9.000;2023-07-13T03:02:05;15.80;99.90
5786;DHT22;2919;48.630;9.000;2023-07-13T03:04:31;15.80;99.90
5786;DHT22;2919;48.630;9.000;2023-07-13T03:06:56;15.80;99.90
5786;DHT22;2919;48.630;9.000;2023-07-13T03:09:24;15.80;99.90
5786;DHT22;2919;48.630;9.000;2023-07-13T03:11:52;15.90;99.90
5786;DHT22;2919;48.630;9.000;2023-07-13T03:14:18;15.80;99.90
5786;DHT22;2919;48.630;9.000;2023-07-13T03:16:44;15.80;99.90
5786;DHT22;2919;48.630;9.000;2023-07-13T03:19:09;15.90;99.90
5786;DHT22;2919;48.630;9.000;2023-07-13T03:21:35;15.90;99.90
5786;DHT22;2919;48.630;9.000;2023-07-13T03:24:00;15.90;99.90
5786;DHT22;2919;48.630;9.000;2023-07-13T03:26:26;15.80;99.90
5786;DHT22;2919;48.630;9.000;2023-07-13T03:28:52;15.90;99.90
5786;DHT22;2919;48.630;9.000;2023-07-13T03:31:20;15.80;99.90
5786;DHT22;2919;48.630;9.000;2023-07-13T03:33:46;15.90;99.90
5786;DHT22;2919;48.630;9.000;2023-07-13T03:36:25;15.90;99.90
5786;DHT22;2919;48.630;9.000;2023-07-13T03:38:56;15.80;99.90
5786;DHT22;2919;48.630;9.000;2023-07-13T03:41:22;15.80;99.90
5786;DHT22;2919;48.630;9.000;2023-07-13T03:43:48;15.80;99.90
5786;DHT22;2919;48.630;9.000;2023-07-13T03:46:15;15.80;99.90
5786;DHT22;2919;48.630;9.000;2023-07-13T03:48:43;15.80;99.90
5786;DHT22;2919;48.630;9.000;2023-07-13T03:51:10;15.90;99.90
5786;DHT22;2919;48.630;9.000;2023-07-13T03:53:41;15.90;99.90
5786;DHT22;2919;48.630;9.000;2023-07-13T03:56:08;15.90;99.90
5786;DHT22;2919;48.630;9.000;2023-07-13T03:58:39;15.90;99.90
5786;DHT22;2919;48.630;9.000;2023-07-13T04:01:07;15.90;99.90
5786;DHT22;2919;48.630;9.000;2023-07-13T04:03:33;16.00;99.90
5786;DHT22;2919;48.630;9.000;2023-07-13T04:06:00;16.10;99.90
5786;DHT22;2919;48.630;9.000;2023-07-13T04:08:28;16.10;99.90
5786;DHT22;2919;48.630;9.000;2023-07-13T04:10:54;16.10;99.90
5786;DHT22;2919;48.630;9.000;2023-07-13T04:13:19;16.20;99.90
5786;DHT22;2919;48.630;9.000;2023-07-13T04:15:45;16.30;99.90
5786;DHT22;2919;48.630;9.000;2023-07-13T04:18:11;16.30;99.90
5786;DHT22;2919;48.630;9.000;2023-07-13T04:20:36;16.20;99.90
5786;DHT22;2919;48.630;9.000;2023-07-13T04:23:02;16.20;99.90
5786;DHT22;2919;48.630;9.000;2023-07-13T04:25:27;16.20;99.90
5786;DHT22;2919;48.630;9.000;2023-07-13T04:27:53;16.20;99.90
5786;DHT22;2919;48.630;9.000;2023-07-13T04:30:20;16.20;99.90
5786;DHT22;2919;48.630;9.000;2023-07-13T04:32:46;16.10;99.90
5786;DHT22;2919;48.630;9.000;2023-07-13T04:35:12;16.10;99.90
5786;DHT22;2919;48.630;9.000;2023-07-13T04:37:39;16.00;99.90
5786;DHT22;2919;48.630;9.000;2023-07-13T04:40:05;16.10;99.90
5786;DHT22;2919;48.630;9.000;2023-07-13T04:42:31;16.10;99.90
5786;DHT22;2919;48.630;9.000;2023-07-13T04:44:57;16.00;99.90
5786;DHT22;2919;48.630;9.000;2023-07-13T04:47:22;16.00;99.90
5786;DHT22;2919;48.630;9.000;2023-07-13T04:49:48;15.90;99.90
5786;DHT22;2919;48.630;9.000;2023-07-13T04:52:14;15.90;99.90
5786;DHT22;2919;48.630;9.000;2023-07-13T04:54:39;15.90;99.90
5786;DHT22;2919;48.630;9.000;2023-07-13T04:57:05;16.00;99.90
5786;DHT22;2919;48.630;9.000;2023-07-13T04:59:32;16.10;99.90
5786;DHT22;2919;48.630;9.000;2023-07-13T05:01:58;16.20;99.90
5786;DHT22;2919;48.630;9.000;2023-07-13T05:04:24;16.30;99.90
5786;DHT22;2919;48.630;9.000;2023-07-13T05:06:49;16.30;99.90
5786;DHT22;2919;48.630;9.000;2023-07-13T05:09:15;16.40;99.90
5786;DHT22;2919;48.630;9.000;2023-07-13T05:11:41;16.50;99.90
5786;DHT22;2919;48.630;9.000;2023-07-13T05:14:06;16.60;99.90
5786;DHT22;2919;48.630;9.000;2023-07-13T05:16:32;16.70;99.90
5786;DHT22;2919;48.630;9.000;2023-07-13T05:18:58;16.70;99.90
5786;DHT22;2919;48.630;9.000;2023-07-13T05:21:23;16.80;99.90
5786;DHT22;2919;48.630;9.000;2023-07-13T05:23:50;16.80;99.90
5786;DHT22;2919;48.630;9.000;2023-07-13T05:26:15;16.80;99.90
5786;DHT22;2919;48.630;9.000;2023-07-13T05:28:41;16.90;99.90
5786;DHT22;2919;48.630;9.000;2023-07-13T05:31:09;16.80;99.90
5786;DHT22;2919;48.630;9.000;2023-07-13T05:33:34;16.90;99.90
5786;DHT22;2919;48.630;9.000;2023-07-13T05:36:00;16.90;99.90
5786;DHT22;2919;48.630;9.000;2023-07-13T05:38:26;17.00;99.90
5786;DHT22;2919;48.630;9.000;2023-07-13T05:40:54;17.10;99.90
5786;DHT22;2919;48.630;9.000;2023-07-13T05:43:20;17.10;99.90
5786;DHT22;2919;48.630;9.000;2023-07-13T05:45:46;17.20;99.90
5786;DHT22;2919;48.630;9.000;2023-07-13T05:48:12;17.20;99.90
5786;DHT22;2919;48.630;9.000;2023-07-13T05:50:37;17.20;99.90
5786;DHT22;2919;48.630;9.000;2023-07-13T05:53:03;17.20;99.90
5786;DHT22;2919;48.630;9.000;2023-07-13T05:55:29;17.30;99.90
5786;DHT22;2919;48.630;9.000;2023-07-13T05:57:55;17.30;99.90
5786;DHT22;2919;48.630;9.000;2023-07-13T06:00:20;17.30;99.90
5786;DHT22;2919;48.630;9.000;2023-07-13T06:02:46;17.40;99.90
5786;DHT22;2919;48.630;9.000;2023-07-13T06:05:12;17.40;99.90
5786;DHT22;2919;48.630;9.000;2023-07-13T06:07:38;17.50;99.90
5786;DHT22;2919;48.630;9.000;2023-07-13T06:10:04;17.50;99.90
5786;DHT22;2919;48.630;9.000;2023-07-13T06:12:29;17.50;99.90
5786;DHT22;2919;48.630;9.000;2023-07-13T06:14:55;17.60;99.90
5786;DHT22;2919;48.630;9.000;2023-07-13T06:17:20;17.60;99.90
5786;DHT22;2919;48.630;9.000;2023-07-13T06:19:46;17.70;99.90
5786;DHT22;2919;48.630;9.000;2023-07-13T06:22:12;17.80;99.00
5786;DHT22;2919;48.630;9.000;2023-07-13T06:24:37;18.00;97.90
5786;DHT22;2919;48.630;9.000;2023-07-13T06:27:03;18.10;97.40
5786;DHT22;2919;48.630;9.000;2023-07-13T06:29:29;18.30;95.10
5786;DHT22;2919;48.630;9.000;2023-07-13T06:31:54;18.50;94.80
5786;DHT22;2919;48.630;9.000;2023-07-13T06:34:20;18.70;93.30
5786;DHT22;2919;48.630;9.000;2023-07-13T06:36:46;18.70;92.80
5786;DHT22;2919;48.630;9.000;2023-07-13T06:39:11;18.80;92.80
5786;DHT22;2919;48.630;9.000;2023-07-13T06:41:37;18.80;92.90
5786;DHT22;2919;48.630;9.000;2023-07-13T06:44:04;18.90;92.20
5786;DHT22;2919;48.630;9.000;2023-07-13T06:46:30;19.00;92.00
5786;DHT22;2919;48.630;9.000;2023-07-13T06:48:56;19.00;92.00
5786;DHT22;2919;48.630;9.000;2023-07-13T06:51:22;19.00;92.70
5786;DHT22;2919;48.630;9.000;2023-07-13T06:53:47;18.90;90.90
5786;DHT22;2919;48.630;9.000;2023-07-13T06:56:13;18.80;91.00
5786;DHT22;2919;48.630;9.000;2023-07-13T06:58:39;18.80;91.80
5786;DHT22;2919;48.630;9.000;2023-07-13T07:01:05;18.90;91.90
5786;DHT22;2919;48.630;9.000;2023-07-13T07:03:30;19.00;92.20
5786;DHT22;2919;48.630;9.000;2023-07-13T07:06:16;19.20;92.30
5786;DHT22;2919;48.630;9.000;2023-07-13T07:08:42;19.40;91.40
5786;DHT22;2919;48.630;9.000;2023-07-13T07:11:14;19.60;90.80
5786;DHT22;2919;48.630;9.000;2023-07-13T07:13:40;19.70;90.50
5786;DHT22;2919;48.630;9.000;2023-07-13T07:16:06;19.80;89.10
5786;DHT22;2919;48.630;9.000;2023-07-13T07:18:32;20.00;88.40
5786;DHT22;2919;48.630;9.000;2023-07-13T07:20:57;20.00;89.30
5786;DHT22;2919;48.630;9.000;2023-07-13T07:23:23;20.10;88.10
5786;DHT22;2919;48.630;9.000;2023-07-13T07:25:49;20.20;86.20
5786;DHT22;2919;48.630;9.000;2023-07-13T07:28:15;20.30;85.60
5786;DHT22;2919;48.630;9.000;2023-07-13T07:30:44;20.40;85.20
5786;DHT22;2919;48.630;9.000;2023-07-13T07:33:10;20.70;85.50
5786;DHT22;2919;48.630;9.000;2023-07-13T07:35:35;20.90;81.80
5786;DHT22;2919;48.630;9.000;2023-07-13T07:38:01;21.00;76.80
5786;DHT22;2919;48.630;9.000;2023-07-13T07:40:27;21.20;78.00
5786;DHT22;2919;48.630;9.000;2023-07-13T07:42:53;21.70;78.10
5786;DHT22;2919;48.630;9.000;2023-07-13T07:45:19;22.00;78.60
5786;DHT22;2919;48.630;9.000;2023-07-13T07:47:45;22.60;74.70
5786;DHT22;2919;48.630;9.000;2023-07-13T07:50:10;23.70;75.00
5786;DHT22;2919;48.630;9.000;2023-07-13T07:52:36;25.00;70.60
5786;DHT22;2919;48.630;9.000;2023-07-13T07:55:03;25.50;66.80
5786;DHT22;2919;48.630;9.000;2023-07-13T07:57:28;26.00;63.30
5786;DHT22;2919;48.630;9.000;2023-07-13T07:59:54;26.50;61.60
5786;DHT22;2919;48.630;9.000;2023-07-13T08:02:19;26.00;64.20
5786;DHT22;2919;48.630;9.000;2023-07-13T08:04:45;26.50;62.30
5786;DHT22;2919;48.630;9.000;2023-07-13T08:07:11;26.30;63.40
5786;DHT22;2919;48.630;9.000;2023-07-13T08:09:36;26.90;63.30
5786;DHT22;2919;48.630;9.000;2023-07-13T08:12:02;27.20;62.10
5786;DHT22;2919;48.630;9.000;2023-07-13T08:14:28;27.50;61.10
5786;DHT22;2919;48.630;9.000;2023-07-13T08:16:53;27.60;60.70
5786;DHT22;2919;48.630;9.000;2023-07-13T08:19:19;28.30;58.00
5786;DHT22;2919;48.630;9.000;2023-07-13T08:21:44;28.30;58.80
5786;DHT22;2919;48.630;9.000;2023-07-13T08:24:10;28.00;58.80
5786;DHT22;2919;48.630;9.000;2023-07-13T08:26:36;27.60;60.80
5786;DHT22;2919;48.630;9.000;2023-07-13T08:29:02;27.40;59.90
5786;DHT22;2919;48.630;9.000;2023-07-13T08:31:28;28.20;59.10
5786;DHT22;2919;48.630;9.000;2023-07-13T08:33:54;28.20;58.50
5786;DHT22;2919;48.630;9.000;2023-07-13T08:36:19;28.40;57.90
5786;DHT22;2919;48.630;9.000;2023-07-13T08:38:45;28.80;56.90
5786;DHT22;2919;48.630;9.000;2023-07-13T08:41:13;29.10;56.50
5786;DHT22;2919;48.630;9.000;2023-07-13T08:43:39;28.90;56.20
5786;DHT22;2919;48.630;9.000;2023-07-13T08:48:43;28.80;55.80
5786;DHT22;2919;48.630;9.000;2023-07-13T08:53:41;28.80;56.50
5786;DHT22;2919;48.630;9.000;2023-07-13T08:56:16;28.60;55.30
5786;DHT22;2919;48.630;9.000;2023-07-13T08:58:43;27.50;56.50
5786;DHT22;2919;48.630;9.000;2023-07-13T09:04:12;26.40;57.30
5786;DHT22;2919;48.630;9.000;2023-07-13T09:14:50;27.60;54.70
5786;DHT22;2919;48.630;9.000;2023-07-13T09:17:27;27.80;55.20
5786;DHT22;2919;48.630;9.000;2023-07-13T09:20:00;28.40;54.30
5786;DHT22;2919;48.630;9.000;2023-07-13T09:22:31;28.20;54.60
5786;DHT22;2919;48.630;9.000;2023-07-13T09:27:36;28.20;55.40
5786;DHT22;2919;48.630;9.000;2023-07-13T09:30:23;27.70;56.10
5786;DHT22;2919;48.630;9.000;2023-07-13T09:32:53;26.80;57.80
5786;DHT22;2919;48.630;9.000;2023-07-13T09:35:24;27.00;56.40
5786;DHT22;2919;48.630;9.000;2023-07-13T09:37:56;27.10;56.50
5786;DHT22;2919;48.630;9.000;2023-07-13T09:43:16;27.80;57.20
5786;DHT22;2919;48.630;9.000;2023-07-13T09:45:45;27.90;56.20
5786;DHT22;2919;48.630;9.000;2023-07-13T09:48:13;27.90;55.50
5786;DHT22;2919;48.630;9.000;2023-07-13T09:50:40;27.90;56.00
5786;DHT22;2919;48.630;9.000;2023-07-13T09:53:12;27.50;56.50
5786;DHT22;2919;48.630;9.000;2023-07-13T09:55:39;27.30;56.10
5786;DHT22;2919;48.630;9.000;2023-07-13T09:58:15;26.80;57.80
5786;DHT22;2919;48.630;9.000;2023-07-13T10:00:43;25.70;59.40
5786;DHT22;2919;48.630;9.000;2023-07-13T10:03:21;25.70;60.30
5786;DHT22;2919;48.630;9.000;2023-07-13T10:05:50;26.00;59.60
5786;DHT22;2919;48.630;9.000;2023-07-13T10:08:27;25.90;59.40
5786;DHT22;2919;48.630;9.000;2023-07-13T10:11:01;25.70;58.60
5786;DHT22;2919;48.630;9.000;2023-07-13T10:13:36;25.30;60.10
5786;DHT22;2919;48.630;9.000;2023-07-13T10:16:04;25.40;60.90
5786;DHT22;2919;48.630;9.000;2023-07-13T10:21:15;25.80;59.50
5786;DHT22;2919;48.630;9.000;2023-07-13T10:23:42;25.50;60.30
5786;DHT22;2919;48.630;9.000;2023-07-13T10:26:23;25.20;60.90
5786;DHT22;2919;48.630;9.000;2023-07-13T10:28:53;25.00;60.60
5786;DHT22;2919;48.630;9.000;2023-07-13T10:31:21;24.60;62.50
5786;DHT22;2919;48.630;9.000;2023-07-13T10:33:46;24.80;63.50
5786;DHT22;2919;48.630;9.000;2023-07-13T10:38:59;24.60;61.90
5786;DHT22;2919;48.630;9.000;2023-07-13T10:41:28;24.60;63.50
5786;DHT22;2919;48.630;9.000;2023-07-13T10:43:56;24.40;62.60
5786;DHT22;2919;48.630;9.000;2023-07-13T10:46:25;24.40;62.50
5786;DHT22;2919;48.630;9.000;2023-07-13T10:48:57;24.50;61.10
5786;DHT22;2919;48.630;9.000;2023-07-13T10:51:25;24.50;63.00
5786;DHT22;2919;48.630;9.000;2023-07-13T10:54:17;24.50;61.40
5786;DHT22;2919;48.630;9.000;2023-07-13T10:56:44;24.30;62.50
5786;DHT22;2919;48.630;9.000;2023-07-13T10:59:20;24.60;60.90
5786;DHT22;2919;48.630;9.000;2023-07-13T11:04:20;24.70;62.20
5786;DHT22;2919;48.630;9.000;2023-07-13T11:06:48;24.90;62.40
5786;DHT22;2919;48.630;9.000;2023-07-13T11:11:47;25.30;61.70
5786;DHT22;2919;48.630;9.000;2023-07-13T11:17:48;25.40;59.80
5786;DHT22;2919;48.630;9.000;2023-07-13T11:33:13;25.00;57.10
5786;DHT22;2919;48.630;9.000;2023-07-13T11:38:38;25.30;56.60
5786;DHT22;2919;48.630;9.000;2023-07-13T11:41:25;25.50;56.90
5786;DHT22;2919;48.630;9.000;2023-07-13T11:44:01;25.30;56.90
5786;DHT22;2919;48.630;9.000;2023-07-13T11:46:28;25.30;57.30
5786;DHT22;2919;48.630;9.000;2023-07-13T11:48:54;25.50;55.00
5786;DHT22;2919;48.630;9.000;2023-07-13T11:51:31;25.80;54.20
5786;DHT22;2919;48.630;9.000;2023-07-13T11:54:47;26.10;53.30
5786;DHT22;2919;48.630;9.000;2023-07-13T11:56:48;25.80;53.60
5786;DHT22;2919;48.630;9.000;2023-07-13T11:59:14;25.40;52.90
5786;DHT22;2919;48.630;9.000;2023-07-13T12:01:47;25.10;52.90
5786;DHT22;2919;48.630;9.000;2023-07-13T12:06:47;25.70;52.70
5786;DHT22;2919;48.630;9.000;2023-07-13T12:09:18;25.70;52.70
5786;DHT22;2919;48.630;9.000;2023-07-13T12:11:50;25.50;52.10
5786;DHT22;2919;48.630;9.000;2023-07-13T12:14:18;25.20;52.80
5786;DHT22;2919;48.630;9.000;2023-07-13T12:16:45;25.20;55.00
5786;DHT22;2919;48.630;9.000;2023-07-13T12:19:18;25.50;52.10
5786;DHT22;2919;48.630;9.000;2023-07-13T12:21:46;25.50;53.30
5786;DHT22;2919;48.630;9.000;2023-07-13T12:24:17;25.90;52.80
5786;DHT22;2919;48.630;9.000;2023-07-13T12:26:43;26.20;52.40
5786;DHT22;2919;48.630;9.000;2023-07-13T12:29:15;26.40;53.00
5786;DHT22;2919;48.630;9.000;2023-07-13T12:31:44;26.40;52.90
5786;DHT22;2919;48.630;9.000;2023-07-13T12:34:16;26.40;54.10
5786;DHT22;2919;48.630;9.000;2023-07-13T12:37:02;26.60;53.30
5786;DHT22;2919;48.630;9.000;2023-07-13T12:39:38;26.80;53.40
5786;DHT22;2919;48.630;9.000;2023-07-13T12:42:29;26.80;51.60
5786;DHT22;2919;48.630;9.000;2023-07-13T12:44:58;26.90;51.00
5786;DHT22;2919;48.630;9.000;2023-07-13T12:47:25;26.80;51.20
5786;DHT22;2919;48.630;9.000;2023-07-13T12:49:56;26.60;51.80
5786;DHT22;2919;48.630;9.000;2023-07-13T12:52:28;26.60;51.00
5786;DHT22;2919;48.630;9.000;2023-07-13T12:55:12;26.80;49.90
5786;DHT22;2919;48.630;9.000;2023-07-13T12:57:43;27.00;50.90
5786;DHT22;2919;48.630;9.000;2023-07-13T13:00:21;27.10;48.80
5786;DHT22;2919;48.630;9.000;2023-07-13T13:02:50;27.00;49.40
5786;DHT22;2919;48.630;9.000;2023-07-13T13:05:16;27.10;49.10
5786;DHT22;2919;48.630;9.000;2023-07-13T13:07:42;26.90;50.70
5786;DHT22;2919;48.630;9.000;2023-07-13T13:10:14;26.70;48.80
5786;DHT22;2919;48.630;9.000;2023-07-13T13:12:40;26.10;49.30
5786;DHT22;2919;48.630;9.000;2023-07-13T13:15:08;25.90;51.20
5786;DHT22;2919;48.630;9.000;2023-07-13T13:17:34;25.80;51.90
5786;DHT22;2919;48.630;9.000;2023-07-13T13:20:00;26.50;52.40
5786;DHT22;2919;48.630;9.000;2023-07-13T13:22:26;27.00;50.70
5786;DHT22;2919;48.630;9.000;2023-07-13T13:24:52;26.80;50.30
5786;DHT22;2919;48.630;9.000;2023-07-13T13:27:21;26.50;50.40
5786;DHT22;2919;48.630;9.000;2023-07-13T13:29:49;26.50;50.00
5786;DHT22;2919;48.630;9.000;2023-07-13T13:32:16;27.10;50.30
5786;DHT22;2919;48.630;9.000;2023-07-13T13:34:42;27.20;50.50
5786;DHT22;2919;48.630;9.000;2023-07-13T13:37:20;27.70;49.80
5786;DHT22;2919;48.630;9.000;2023-07-13T13:39:47;27.60;46.80
5786;DHT22;2919;48.630;9.000;2023-07-13T13:42:13;27.20;48.00
5786;DHT22;2919;48.630;9.000;2023-07-13T13:44:39;27.20;47.90
5786;DHT22;2919;48.630;9.000;2023-07-13T13:47:17;27.20;47.90
5786;DHT22;2919;48.630;9.000;2023-07-13T13:49:45;26.80;48.60
5786;DHT22;2919;48.630;9.000;2023-07-13T13:52:12;26.30;49.80
5786;DHT22;2919;48.630;9.000;2023-07-13T13:54:38;26.20;49.90
5786;DHT22;2919;48.630;9.000;2023-07-13T13:57:04;25.80;52.30
5786;DHT22;2919;48.630;9.000;2023-07-13T13:59:30;25.70;52.50
5786;DHT22;2919;48.630;9.000;2023-07-13T14:01:58;25.50;53.40
5786;DHT22;2919;48.630;9.000;2023-07-13T14:04:25;25.50;52.50
5786;DHT22;2919;48.630;9.000;2023-07-13T14:06:51;25.40;53.30
5786;DHT22;2919;48.630;9.000;2023-07-13T14:09:18;25.50;53.20
5786;DHT22;2919;48.630;9.000;2023-07-13T14:11:45;25.80;51.60
5786;DHT22;2919;48.630;9.000;2023-07-13T14:14:19;25.90;53.60
5786;DHT22;2919;48.630;9.000;2023-07-13T14:16:45;26.20;53.80
5786;DHT22;2919;48.630;9.000;2023-07-13T14:19:18;26.30;53.80
5786;DHT22;2919;48.630;9.000;2023-07-13T14:21:44;26.50;52.50
5786;DHT22;2919;48.630;9.000;2023-07-13T14:24:10;26.50;53.00
5786;DHT22;2919;48.630;9.000;2023-07-13T14:26:38;26.50;54.00
5786;DHT22;2919;48.630;9.000;2023-07-13T14:29:11;26.80;52.40
5786;DHT22;2919;48.630;9.000;2023-07-13T14:31:38;26.50;51.30
5786;DHT22;2919;48.630;9.000;2023-07-13T14:34:04;26.30;51.20
5786;DHT22;2919;48.630;9.000;2023-07-13T14:36:32;26.20;50.80
5786;DHT22;2919;48.630;9.000;2023-07-13T14:39:01;26.10;52.80
5786;DHT22;2919;48.630;9.000;2023-07-13T14:41:31;26.10;50.80
5786;DHT22;2919;48.630;9.000;2023-07-13T14:43:57;26.20;53.90
5786;DHT22;2919;48.630;9.000;2023-07-13T14:46:31;26.20;52.60
5786;DHT22;2919;48.630;9.000;2023-07-13T14:49:05;26.30;53.70
5786;DHT22;2919;48.630;9.000;2023-07-13T14:51:32;26.20;54.10
5786;DHT22;2919;48.630;9.000;2023-07-13T14:54:02;25.90;55.10
5786;DHT22;2919;48.630;9.000;2023-07-13T14:56:28;25.60;57.20
5786;DHT22;2919;48.630;9.000;2023-07-13T14:58:54;25.40;57.40
5786;DHT22;2919;48.630;9.000;2023-07-13T15:01:20;25.20;57.20
5786;DHT22;2919;48.630;9.000;2023-07-13T15:03:50;25.30;57.80
5786;DHT22;2919;48.630;9.000;2023-07-13T15:06:16;25.40;58.10
5786;DHT22;2919;48.630;9.000;2023-07-13T15:08:42;25.30;58.90
5786;DHT22;2919;48.630;9.000;2023-07-13T15:11:09;25.40;58.00
5786;DHT22;2919;48.630;9.000;2023-07-13T15:13:38;25.60;57.90
5786;DHT22;2919;48.630;9.000;2023-07-13T15:16:04;25.90;57.80
5786;DHT22;2919;48.630;9.000;2023-07-13T15:18:31;25.70;57.30
5786;DHT22;2919;48.630;9.000;2023-07-13T15:20:57;25.40;58.90
5786;DHT22;2919;48.630;9.000;2023-07-13T15:23:25;25.30;58.60
5786;DHT22;2919;48.630;9.000;2023-07-13T15:25:51;25.40;57.10
5786;DHT22;2919;48.630;9.000;2023-07-13T15:28:17;25.20;57.40
5786;DHT22;2919;48.630;9.000;2023-07-13T15:30:45;25.00;57.50
5786;DHT22;2919;48.630;9.000;2023-07-13T15:35:45;24.90;59.10
5786;DHT22;2919;48.630;9.000;2023-07-13T15:38:41;25.00;59.10
5786;DHT22;2919;48.630;9.000;2023-07-13T15:43:42;25.10;58.90
5786;DHT22;2919;48.630;9.000;2023-07-13T15:46:09;25.30;57.40
5786;DHT22;2919;48.630;9.000;2023-07-13T15:48:34;25.20;57.80
5786;DHT22;2919;48.630;9.000;2023-07-13T15:51:02;25.20;57.50
5786;DHT22;2919;48.630;9.000;2023-07-13T15:53:33;24.90;58.90
5786;DHT22;2919;48.630;9.000;2023-07-13T15:55:59;24.90;59.10
5786;DHT22;2919;48.630;9.000;2023-07-13T15:58:25;24.90;57.90
5786;DHT22;2919;48.630;9.000;2023-07-13T16:00:52;25.00;58.30
5786;DHT22;2919;48.630;9.000;2023-07-13T16:03:19;24.90;58.60
5786;DHT22;2919;48.630;9.000;2023-07-13T16:05:45;24.70;58.10
5786;DHT22;2919;48.630;9.000;2023-07-13T16:08:25;24.60;59.10
5786;DHT22;2919;48.630;9.000;2023-07-13T16:10:52;24.40;58.80
5786;DHT22;2919;48.630;9.000;2023-07-13T16:13:20;24.40;58.90
5786;DHT22;2919;48.630;9.000;2023-07-13T16:15:46;24.40;58.80
5786;DHT22;2919;48.630;9.000;2023-07-13T16:18:13;24.60;59.50
5786;DHT22;2919;48.630;9.000;2023-07-13T16:20:43;24.80;58.60
5786;DHT22;2919;48.630;9.000;2023-07-13T16:23:11;24.90;58.20
5786;DHT22;2919;48.630;9.000;2023-07-13T16:25:39;24.80;58.00
5786;DHT22;2919;48.630;9.000;2023-07-13T16:28:05;24.80;58.80
5786;DHT22;2919;48.630;9.000;2023-07-13T16:30:32;24.60;58.20
5786;DHT22;2919;48.630;9.000;2023-07-13T16:33:03;24.50;58.40
5786;DHT22;2919;48.630;9.000;2023-07-13T16:35:39;24.40;58.20
5786;DHT22;2919;48.630;9.000;2023-07-13T16:38:17;24.50;59.00
5786;DHT22;2919;48.630;9.000;2023-07-13T16:40:43;24.50;58.50
5786;DHT22;2919;48.630;9.000;2023-07-13T16:43:12;24.60;59.10
5786;DHT22;2919;48.630;9.000;2023-07-13T16:45:38;24.70;58.20
5786;DHT22;2919;48.630;9.000;2023-07-13T16:48:12;24.50;58.30
5786;DHT22;2919;48.630;9.000;2023-07-13T16:50:41;24.40;58.00
5786;DHT22;2919;48.630;9.000;2023-07-13T16:53:20;24.40;58.90
5786;DHT22;2919;48.630;9.000;2023-07-13T16:55:47;24.40;57.90
5786;DHT22;2919;48.630;9.000;2023-07-13T16:58:13;24.20;59.00
5786;DHT22;2919;48.630;9.000;2023-07-13T17:00:39;24.30;58.70
5786;DHT22;2919;48.630;9.000;2023-07-13T17:03:05;24.20;58.20
5786;DHT22;2919;48.630;9.000;2023-07-13T17:07:58;24.30;58.80